sensor_id;sensor_type;location;lat;lon;timestamp;pressure;altitude;pressure_sealevel;temperature;humidity
23679;BME280;12016;51.668;6.874;2023-01-28T00:05:13;102609.50;;;4.47;66.55
23679;BME280;12016;51.668;6.874;2023-01-28T00:11:16;102295.00;;;2.54;66.68
23679;BME280;12016;51.668;6.874;2023-01-28T00:17:18;102691.28;;;4.71;67.05
23679;BME280;12016;51.668;6.874;2023-01-28T00:23:19;102438.66;;;3.34;66.24
23679;BME280;12016;51.668;6.874;2023-01-28T00:29:21;102648.22;;;4.67;66.57
23679;BME280;12016;51.668;6.874;2023-01-28T00:35:23;102326.00;;;2.60;66.45
23679;BME280;12016;51.668;6.874;2023-01-28T00:41:28;102642.91;;;4.49;66.73
23679;BME280;12016;51.668;6.874;2023-01-28T00:47:31;102386.28;;;2.91;66.45
23679;BME280;12016;51.668;6.874;2023-01-28T00:53:33;102657.66;;;4.52;66.69
23679;BME280;12016;51.668;6.874;2023-01-28T00:59:36;102464.47;;;3.33;66.84
23679;BME280;12016;51.668;6.874;2023-01-28T01:05:38;102601.59;;;4.22;67.32
23679;BME280;12016;51.668;6.874;2023-01-28T01:11:41;102473.34;;;3.45;66.48
23679;BME280;12016;51.668;6.874;2023-01-28T01:17:46;102359.28;;;2.69;66.67
23679;BME280;12016;51.668;6.874;2023-01-28T01:23:50;102653.97;;;4.53;66.75
23679;BME280;12016;51.668;6.874;2023-01-28T01:29:52;102596.28;;;4.04;67.34
23679;BME280;12016;51.668;6.874;2023-01-28T01:35:54;102515.59;;;3.60;66.80
23679;BME280;12016;51.668;6.874;2023-01-28T01:41:56;102703.09;;;4.45;67.06
23679;BME280;12016;51.668;6.874;2023-01-28T01:48:02;102663.28;;;4.44;66.49
23679;BME280;12016;51.668;6.874;2023-01-28T01:54:05;102158.31;;;1.07;65.63
23679;BME280;12016;51.668;6.874;2023-01-28T02:00:08;102453.50;;;3.05;66.23
23679;BME280;12016;51.668;6.874;2023-01-28T02:06:16;102364.78;;;2.49;65.78
23679;BME280;12016;51.668;6.874;2023-01-28T02:12:34;102612.22;;;3.92;65.38
23679;BME280;12016;51.668;6.874;2023-01-28T02:18:37;102678.81;;;4.35;65.83
23679;BME280;12016;51.668;6.874;2023-01-28T02:31:22;102384.19;;;2.57;65.60
23679;BME280;12016;51.668;6.874;2023-01-28T02:43:42;102485.25;;;3.25;65.67
23679;BME280;12016;51.668;6.874;2023-01-28T02:49:48;102672.44;;;4.36;65.34
23679;BME280;12016;51.668;6.874;2023-01-28T02:56:41;102435.72;;;2.80;65.23
23679;BME280;12016;51.668;6.874;2023-01-28T03:03:04;102515.97;;;3.45;65.68
23679;BME280;12016;51.668;6.874;2023-01-28T03:09:10;102659.47;;;4.40;66.04
23679;BME280;12016;51.668;6.874;2023-01-28T03:15:25;102598.50;;;3.70;65.68
23679;BME280;12016;51.668;6.874;2023-01-28T03:21:49;102462.16;;;3.18;65.79
23679;BME280;12016;51.668;6.874;2023-01-28T03:28:11;102507.00;;;3.40;65.71
23679;BME280;12016;51.668;6.874;2023-01-28T03:34:36;102680.66;;;4.35;66.04
23679;BME280;12016;51.668;6.874;2023-01-28T03:41:00;102693.03;;;4.11;66.27
23679;BME280;12016;51.668;6.874;2023-01-28T03:47:04;102383.97;;;2.33;65.71
23679;BME280;12016;51.668;6.874;2023-01-28T03:53:07;102688.00;;;4.21;65.14
23679;BME280;12016;51.668;6.874;2023-01-28T03:59:22;102629.09;;;3.86;64.33
23679;BME280;12016;51.668;6.874;2023-01-28T04:05:26;102188.97;;;1.03;64.49
23679;BME280;12016;51.668;6.874;2023-01-28T04:11:32;102619.53;;;3.35;64.70
23679;BME280;12016;51.668;6.874;2023-01-28T04:17:36;102078.41;;;0.28;64.36
23679;BME280;12016;51.668;6.874;2023-01-28T04:23:39;102625.44;;;3.62;64.72
23679;BME280;12016;51.668;6.874;2023-01-28T04:29:42;102704.50;;;4.11;64.97
23679;BME280;12016;51.668;6.874;2023-01-28T04:36:04;102265.28;;;1.39;64.58
23679;BME280;12016;51.668;6.874;2023-01-28T04:42:26;102684.78;;;3.94;63.98
23679;BME280;12016;51.668;6.874;2023-01-28T04:48:36;102539.59;;;3.17;63.82
23679;BME280;12016;51.668;6.874;2023-01-28T04:54:59;102444.53;;;2.31;63.60
23679;BME280;12016;51.668;6.874;2023-01-28T05:01:03;102482.19;;;2.78;64.27
23679;BME280;12016;51.668;6.874;2023-01-28T05:07:06;102702.88;;;4.10;63.69
23679;BME280;12016;51.668;6.874;2023-01-28T05:13:08;102504.84;;;2.87;63.84
23679;BME280;12016;51.668;6.874;2023-01-28T05:19:10;102699.22;;;4.05;64.08
23679;BME280;12016;51.668;6.874;2023-01-28T05:25:15;102698.06;;;4.01;64.32
23679;BME280;12016;51.668;6.874;2023-01-28T05:31:18;102709.00;;;3.92;64.16
23679;BME280;12016;51.668;6.874;2023-01-28T05:37:23;102644.44;;;3.22;64.32
23679;BME280;12016;51.668;6.874;2023-01-28T05:43:29;102513.56;;;2.44;63.60
23679;BME280;12016;51.668;6.874;2023-01-28T05:49:49;102727.84;;;3.73;63.82
23679;BME280;12016;51.668;6.874;2023-01-28T05:56:07;102526.16;;;2.56;64.25
23679;BME280;12016;51.668;6.874;2023-01-28T06:02:11;102697.81;;;3.59;63.65
23679;BME280;12016;51.668;6.874;2023-01-28T06:08:13;102150.03;;;0.02;63.27
23679;BME280;12016;51.668;6.874;2023-01-28T06:14:15;102636.06;;;3.19;63.55
23679;BME280;12016;51.668;6.874;2023-01-28T06:20:36;102721.91;;;3.71;62.82
23679;BME280;12016;51.668;6.874;2023-01-28T06:26:39;102632.47;;;3.07;62.77
23679;BME280;12016;51.668;6.874;2023-01-28T06:32:41;102576.25;;;2.65;63.02
23679;BME280;12016;51.668;6.874;2023-01-28T06:38:43;102527.31;;;2.35;63.29
23679;BME280;12016;51.668;6.874;2023-01-28T06:44:44;102447.69;;;1.77;63.31
23679;BME280;12016;51.668;6.874;2023-01-28T06:50:47;102530.56;;;2.37;63.63
23679;BME280;12016;51.668;6.874;2023-01-28T06:56:49;102740.59;;;3.64;63.69
23679;BME280;12016;51.668;6.874;2023-01-28T07:02:54;102149.66;;;-0.09;63.37
23679;BME280;12016;51.668;6.874;2023-01-28T07:08:56;102738.38;;;3.61;63.94
23679;BME280;12016;51.668;6.874;2023-01-28T07:14:58;102672.78;;;3.10;63.63
23679;BME280;12016;51.668;6.874;2023-01-28T07:21:01;102478.19;;;1.68;63.60
23679;BME280;12016;51.668;6.874;2023-01-28T07:27:02;102663.97;;;3.10;62.81
23679;BME280;12016;51.668;6.874;2023-01-28T07:33:05;102747.41;;;3.60;63.20
23679;BME280;12016;51.668;6.874;2023-01-28T07:39:07;102486.41;;;2.04;63.68
23679;BME280;12016;51.668;6.874;2023-01-28T07:45:09;102563.31;;;2.37;63.34
23679;BME280;12016;51.668;6.874;2023-01-28T07:51:11;102720.16;;;3.27;63.50
23679;BME280;12016;51.668;6.874;2023-01-28T07:57:13;102780.81;;;3.63;63.05
23679;BME280;12016;51.668;6.874;2023-01-28T08:03:14;102787.53;;;3.34;62.50
23679;BME280;12016;51.668;6.874;2023-01-28T08:09:16;102294.38;;;0.70;63.16
23679;BME280;12016;51.668;6.874;2023-01-28T08:15:18;102631.53;;;2.88;62.46
23679;BME280;12016;51.668;6.874;2023-01-28T08:21:20;102607.53;;;2.70;62.38
23679;BME280;12016;51.668;6.874;2023-01-28T08:27:22;102274.06;;;0.51;62.49
23679;BME280;12016;51.668;6.874;2023-01-28T08:33:24;102399.88;;;1.32;62.59
23679;BME280;12016;51.668;6.874;2023-01-28T08:39:26;102586.22;;;2.38;62.30
23679;BME280;12016;51.668;6.874;2023-01-28T08:45:28;102285.91;;;0.35;62.98
23679;BME280;12016;51.668;6.874;2023-01-28T08:51:30;102696.25;;;2.88;62.21
23679;BME280;12016;51.668;6.874;2023-01-28T08:57:32;102516.25;;;1.55;63.08
23679;BME280;12016;51.668;6.874;2023-01-28T09:03:34;102681.66;;;2.60;62.87
23679;BME280;12016;51.668;6.874;2023-01-28T09:09:36;102715.53;;;2.77;61.87
23679;BME280;12016;51.668;6.874;2023-01-28T09:15:38;102827.00;;;3.50;61.18
23679;BME280;12016;51.668;6.874;2023-01-28T09:21:40;102871.81;;;3.91;61.22
23679;BME280;12016;51.668;6.874;2023-01-28T09:27:41;102874.78;;;4.08;61.63
23679;BME280;12016;51.668;6.874;2023-01-28T09:33:43;102883.19;;;4.11;60.99
23679;BME280;12016;51.668;6.874;2023-01-28T09:39:45;102811.06;;;3.75;61.69
23679;BME280;12016;51.668;6.874;2023-01-28T09:45:49;102753.25;;;3.44;60.54
23679;BME280;12016;51.668;6.874;2023-01-28T09:51:53;102882.66;;;4.27;61.01
23679;BME280;12016;51.668;6.874;2023-01-28T09:57:56;102897.47;;;4.17;60.68
23679;BME280;12016;51.668;6.874;2023-01-28T10:04:00;102886.47;;;4.56;60.08
23679;BME280;12016;51.668;6.874;2023-01-28T10:10:26;102876.63;;;4.57;60.64
23679;BME280;12016;51.668;6.874;2023-01-28T10:16:43;102873.41;;;4.73;59.76
23679;BME280;12016;51.668;6.874;2023-01-28T10:22:55;102818.06;;;4.19;59.52
23679;BME280;12016;51.668;6.874;2023-01-28T10:29:10;102894.03;;;4.41;59.83
23679;BME280;12016;51.668;6.874;2023-01-28T10:35:13;102187.94;;;-0.05;59.98
23679;BME280;12016;51.668;6.874;2023-01-28T10:41:19;102896.03;;;4.46;59.50
23679;BME280;12016;51.668;6.874;2023-01-28T10:47:29;102760.66;;;3.67;60.44
23679;BME280;12016;51.668;6.874;2023-01-28T10:53:44;102899.00;;;4.31;57.63
23679;BME280;12016;51.668;6.874;2023-01-28T10:59:46;102828.84;;;3.81;59.77
23679;BME280;12016;51.668;6.874;2023-01-28T11:05:51;102559.47;;;2.33;58.87
23679;BME280;12016;51.668;6.874;2023-01-28T11:11:53;102738.66;;;3.21;59.22
23679;BME280;12016;51.668;6.874;2023-01-28T11:17:58;102895.22;;;4.45;59.48
23679;BME280;12016;51.668;6.874;2023-01-28T11:24:03;102461.09;;;1.44;58.70
23679;BME280;12016;51.668;6.874;2023-01-28T11:36:23;102893.59;;;4.87;58.49
23679;BME280;12016;51.668;6.874;2023-01-28T11:42:25;102813.50;;;4.26;57.89
23679;BME280;12016;51.668;6.874;2023-01-28T12:01:11;102837.66;;;6.12;56.29
23679;BME280;12016;51.668;6.874;2023-01-28T12:14:06;102825.78;;;6.55;54.34
23679;BME280;12016;51.668;6.874;2023-01-28T12:46:28;102271.81;;;11.59;40.05
23679;BME280;12016;51.668;6.874;2023-01-28T12:52:41;102773.16;;;15.43;34.30
23679;BME280;12016;51.668;6.874;2023-01-28T13:05:09;102761.09;;;12.15;40.96
23679;BME280;12016;51.668;6.874;2023-01-28T13:11:16;102763.00;;;10.14;44.70
23679;BME280;12016;51.668;6.874;2023-01-28T13:17:26;102773.84;;;9.23;46.09
23679;BME280;12016;51.668;6.874;2023-01-28T13:29:40;102677.56;;;7.68;47.77
23679;BME280;12016;51.668;6.874;2023-01-28T13:35:52;102762.59;;;8.78;45.73
23679;BME280;12016;51.668;6.874;2023-01-28T13:42:25;102735.84;;;8.44;46.15
23679;BME280;12016;51.668;6.874;2023-01-28T13:48:33;102703.25;;;8.36;46.18
23679;BME280;12016;51.668;6.874;2023-01-28T13:54:44;102752.78;;;8.67;46.13
23679;BME280;12016;51.668;6.874;2023-01-28T14:07:39;102646.13;;;8.02;47.10
23679;BME280;12016;51.668;6.874;2023-01-28T14:32:35;102405.16;;;4.16;49.85
23679;BME280;12016;51.668;6.874;2023-01-28T14:38:40;102712.28;;;6.04;50.95
23679;BME280;12016;51.668;6.874;2023-01-28T14:44:45;102489.94;;;4.67;51.45
23679;BME280;12016;51.668;6.874;2023-01-28T15:03:20;102576.63;;;5.29;51.02
23679;BME280;12016;51.668;6.874;2023-01-28T15:09:25;102698.31;;;5.90;51.10
23679;BME280;12016;51.668;6.874;2023-01-28T15:15:36;102711.44;;;5.80;51.46
23679;BME280;12016;51.668;6.874;2023-01-28T15:21:39;102778.66;;;6.54;51.96
23679;BME280;12016;51.668;6.874;2023-01-28T15:27:44;102474.59;;;4.51;51.70
23679;BME280;12016;51.668;6.874;2023-01-28T15:40:17;102784.84;;;6.07;52.41
23679;BME280;12016;51.668;6.874;2023-01-28T15:46:21;102589.34;;;4.51;53.25
23679;BME280;12016;51.668;6.874;2023-01-28T15:52:35;102655.28;;;4.44;52.70
23679;BME280;12016;51.668;6.874;2023-01-28T15:58:39;102810.50;;;5.14;53.93
23679;BME280;12016;51.668;6.874;2023-01-28T16:05:05;102772.63;;;4.68;54.73
23679;BME280;12016;51.668;6.874;2023-01-28T16:11:11;102810.16;;;4.74;54.52
23679;BME280;12016;51.668;6.874;2023-01-28T16:17:29;102853.56;;;4.44;55.75
23679;BME280;12016;51.668;6.874;2023-01-28T16:23:32;102829.72;;;4.24;56.47
23679;BME280;12016;51.668;6.874;2023-01-28T16:29:34;102802.75;;;3.89;57.09
23679;BME280;12016;51.668;6.874;2023-01-28T16:35:36;102753.69;;;3.41;57.34
23679;BME280;12016;51.668;6.874;2023-01-28T16:41:58;102625.94;;;2.33;57.78
23679;BME280;12016;51.668;6.874;2023-01-28T16:48:00;102517.47;;;1.46;57.68
23679;BME280;12016;51.668;6.874;2023-01-28T16:54:02;102601.53;;;1.92;58.45
23679;BME280;12016;51.668;6.874;2023-01-28T17:00:05;102822.97;;;2.90;60.33
23679;BME280;12016;51.668;6.874;2023-01-28T17:06:08;102640.22;;;1.61;60.51
23679;BME280;12016;51.668;6.874;2023-01-28T17:12:12;102844.31;;;2.63;61.43
23679;BME280;12016;51.668;6.874;2023-01-28T17:18:14;102521.81;;;0.61;62.02
23679;BME280;12016;51.668;6.874;2023-01-28T17:24:16;102823.94;;;2.18;62.92
23679;BME280;12016;51.668;6.874;2023-01-28T17:30:18;102856.44;;;2.13;63.14
23679;BME280;12016;51.668;6.874;2023-01-28T17:36:21;102819.00;;;2.08;63.64
23679;BME280;12016;51.668;6.874;2023-01-28T17:42:25;102752.56;;;1.42;63.19
23679;BME280;12016;51.668;6.874;2023-01-28T17:48:27;102837.19;;;1.78;63.38
23679;BME280;12016;51.668;6.874;2023-01-28T17:54:30;102853.28;;;1.50;64.43
23679;BME280;12016;51.668;6.874;2023-01-28T18:00:32;102778.38;;;1.00;65.68
23679;BME280;12016;51.668;6.874;2023-01-28T18:06:34;102839.97;;;1.43;64.78
23679;BME280;12016;51.668;6.874;2023-01-28T18:12:36;102761.59;;;0.87;65.49
23679;BME280;12016;51.668;6.874;2023-01-28T18:18:38;102844.59;;;1.22;65.56
23679;BME280;12016;51.668;6.874;2023-01-28T18:24:40;102859.06;;;1.19;65.90
23679;BME280;12016;51.668;6.874;2023-01-28T18:30:42;102795.81;;;0.75;66.04
23679;BME280;12016;51.668;6.874;2023-01-28T18:36:44;102915.88;;;1.31;65.63
23679;BME280;12016;51.668;6.874;2023-01-28T18:42:46;102879.97;;;1.29;65.09
23679;BME280;12016;51.668;6.874;2023-01-28T18:48:48;102113.66;;;-4.09;65.52
23679;BME280;12016;51.668;6.874;2023-01-28T18:54:50;102878.72;;;1.31;64.92
23679;BME280;12016;51.668;6.874;2023-01-28T19:00:52;102382.56;;;-2.07;65.86
23679;BME280;12016;51.668;6.874;2023-01-28T19:06:55;102797.97;;;0.58;66.31
23679;BME280;12016;51.668;6.874;2023-01-28T19:12:58;102875.38;;;1.10;66.28
23679;BME280;12016;51.668;6.874;2023-01-28T19:19:00;102498.59;;;-1.63;65.86
23679;BME280;12016;51.668;6.874;2023-01-28T19:25:02;102876.97;;;1.04;65.99
23679;BME280;12016;51.668;6.874;2023-01-28T19:31:05;102888.19;;;1.06;65.84
23679;BME280;12016;51.668;6.874;2023-01-28T19:37:08;102894.75;;;1.03;66.25
23679;BME280;12016;51.668;6.874;2023-01-28T19:43:10;102895.25;;;0.86;66.42
23679;BME280;12016;51.668;6.874;2023-01-28T19:49:12;102965.22;;;0.85;66.87
23679;BME280;12016;51.668;6.874;2023-01-28T19:55:15;102439.09;;;-2.02;66.68
23679;BME280;12016;51.668;6.874;2023-01-28T20:01:20;102921.84;;;0.99;66.19
23679;BME280;12016;51.668;6.874;2023-01-28T20:07:22;102901.50;;;0.78;67.13
23679;BME280;12016;51.668;6.874;2023-01-28T20:13:24;102896.94;;;0.65;67.76
23679;BME280;12016;51.668;6.874;2023-01-28T20:19:27;102899.06;;;0.49;67.76
23679;BME280;12016;51.668;6.874;2023-01-28T20:25:32;102888.44;;;0.21;68.84
23679;BME280;12016;51.668;6.874;2023-01-28T20:31:34;102876.28;;;0.05;69.10
23679;BME280;12016;51.668;6.874;2023-01-28T20:37:37;102870.94;;;-0.02;69.53
23679;BME280;12016;51.668;6.874;2023-01-28T20:43:42;102468.13;;;-2.38;69.19
23679;BME280;12016;51.668;6.874;2023-01-28T20:49:46;102960.53;;;-0.05;69.65
23679;BME280;12016;51.668;6.874;2023-01-28T20:55:55;102741.75;;;-0.91;69.98
23679;BME280;12016;51.668;6.874;2023-01-28T21:02:01;102844.25;;;0.00;69.31
23679;BME280;12016;51.668;6.874;2023-01-28T21:08:03;102496.22;;;-2.45;69.44
23679;BME280;12016;51.668;6.874;2023-01-28T21:14:23;102842.28;;;-0.13;69.56
23679;BME280;12016;51.668;6.874;2023-01-28T21:20:29;102381.41;;;-2.77;68.81
23679;BME280;12016;51.668;6.874;2023-01-28T21:26:36;102933.22;;;0.16;68.98
23679;BME280;12016;51.668;6.874;2023-01-28T21:32:53;102841.00;;;0.05;68.88
23679;BME280;12016;51.668;6.874;2023-01-28T21:39:05;102723.91;;;-0.83;69.34
23679;BME280;12016;51.668;6.874;2023-01-28T21:45:22;102691.53;;;-1.06;69.10
23679;BME280;12016;51.668;6.874;2023-01-28T21:51:28;102417.56;;;-2.56;68.50
23679;BME280;12016;51.668;6.874;2023-01-28T21:58:09;102338.44;;;-3.51;70.01
23679;BME280;12016;51.668;6.874;2023-01-28T22:04:40;102874.06;;;-0.13;70.42
23679;BME280;12016;51.668;6.874;2023-01-28T22:11:04;102708.44;;;-1.22;69.27
23679;BME280;12016;51.668;6.874;2023-01-28T22:17:12;102312.63;;;-3.41;69.11
23679;BME280;12016;51.668;6.874;2023-01-28T22:23:15;102868.59;;;0.10;69.26
23679;BME280;12016;51.668;6.874;2023-01-28T22:29:22;102731.44;;;-1.01;69.72
23679;BME280;12016;51.668;6.874;2023-01-28T22:35:34;102863.66;;;0.07;69.79
23679;BME280;12016;51.668;6.874;2023-01-28T22:41:38;102459.13;;;-2.58;69.94
23679;BME280;12016;51.668;6.874;2023-01-28T22:47:43;102861.44;;;-0.11;70.25
23679;BME280;12016;51.668;6.874;2023-01-28T22:53:54;102333.13;;;-3.80;71.10
23679;BME280;12016;51.668;6.874;2023-01-28T23:00:10;102408.13;;;-3.39;70.71
23679;BME280;12016;51.668;6.874;2023-01-28T23:06:16;102827.59;;;-0.37;70.78
23679;BME280;12016;51.668;6.874;2023-01-28T23:12:19;102835.47;;;-0.22;70.68
23679;BME280;12016;51.668;6.874;2023-01-28T23:18:21;102277.75;;;-3.57;69.87
23679;BME280;12016;51.668;6.874;2023-01-28T23:24:48;102230.16;;;-3.85;69.63
23679;BME280;12016;51.668;6.874;2023-01-28T23:30:51;102829.28;;;-0.08;69.80
23679;BME280;12016;51.668;6.874;2023-01-28T23:36:54;102650.09;;;-1.20;69.93
23679;BME280;12016;51.668;6.874;2023-01-28T23:42:56;102113.69;;;-4.61;70.18
23679;BME280;12016;51.668;6.874;2023-01-28T23:49:01;102868.06;;;-0.43;71.19
23679;BME280;12016;51.668;6.874;2023-01-28T23:55:04;102808.13;;;-0.29;70.73
